»·PEaware :: N172SP KSNA-KSBD

N172SP :: KSNA-KSBD

FLIGHT INFORMATION

Flight Status: Arrived
Operator: Privately registered:
United States
More flights under this callsign
Pilot: Ashish G. (19329)
Aircraft: CESSNA 172 SKYHAWK
(C172)
More flights by this aircraft type
Origin: KSNA John Wayne-Orange Co
United States
Destination: KSBD San Bernardino Intl
United States
More flights between these airports :: More routes between these airports
Route: +SLI V8 PDZ
File this flight plan on PilotEdge
Remarks: TEC ROUTE CSTP13
Altitude:
(Current/Filed)
5,000ft
Speed:
(Current/Filed)
110kts
Departed: 27-Aug-18 06:28 PM
Arrived: 27-Aug-18 07:26 PM
Distance/Time
Traveled:
41nm/0:58
Distance/Time
To Go:
Arrived

Flight Plot

Page will automatically refresh every two minutes.


Map Options




Map Legend


Flown Route
Filed Route
Departure Airport
Arrival Airport
Navaid (VOR, NDB)
Fix

Horizontal Profiles

Position Reports

Time Latitude Longitude Heading Altitude Ground
Speed
27-Aug-18 18:11 33.675760 -117.871269 40 60ft 0kts
27-Aug-18 18:12 33.675760 -117.871269 40 60ft 0kts
27-Aug-18 18:13 33.675760 -117.871269 40 60ft 0kts
27-Aug-18 18:14 33.675760 -117.871269 40 60ft 0kts
27-Aug-18 18:15 33.675760 -117.871269 40 60ft 0kts
27-Aug-18 18:16 33.675760 -117.871269 40 60ft 0kts
27-Aug-18 18:17 33.675760 -117.871269 40 60ft 0kts
27-Aug-18 18:18 33.675760 -117.871269 40 60ft 0kts
27-Aug-18 18:19 33.675760 -117.871269 40 60ft 0kts
27-Aug-18 18:20 33.675760 -117.871269 40 60ft 0kts
27-Aug-18 18:21 33.675760 -117.871269 40 60ft 0kts
27-Aug-18 18:22 33.675760 -117.871269 40 60ft 0kts
27-Aug-18 18:23 33.675765 -117.871265 36 60ft 0kts
27-Aug-18 18:24 33.675892 -117.871067 84 60ft 7kts
27-Aug-18 18:25 33.679545 -117.868100 21 60ft 21kts
27-Aug-18 18:26 33.681224 -117.866397 120 60ft 0kts
27-Aug-18 18:27 33.681224 -117.866397 120 60ft 0kts
27-Aug-18 18:28 33.681051 -117.866052 122 60ft 4kts
27-Aug-18 18:29 33.672307 -117.872245 221 434ft 67kts
27-Aug-18 18:30 33.657857 -117.887939 235 1335ft 75kts
27-Aug-18 18:31 33.644024 -117.906096 223 2280ft 73kts
27-Aug-18 18:32 33.630350 -117.924025 260 3119ft 76kts
27-Aug-18 18:33 33.650455 -117.929324 1 3916ft 91kts
27-Aug-18 18:34 33.675423 -117.925365 358 4697ft 90kts
27-Aug-18 18:35 33.702622 -117.920513 0 5004ft 114kts
27-Aug-18 18:36 33.735094 -117.914956 359 5006ft 128kts
27-Aug-18 18:37 33.769814 -117.909378 1 4994ft 126kts
27-Aug-18 18:38 33.804640 -117.904202 0 4946ft 127kts
27-Aug-18 18:39 33.832471 -117.887143 79 4952ft 117kts
27-Aug-18 18:40 33.838277 -117.848329 77 4936ft 121kts
27-Aug-18 18:41 33.847157 -117.810223 71 5059ft 108kts
27-Aug-18 18:42 33.856820 -117.771574 71 4910ft 122kts
27-Aug-18 18:43 33.866323 -117.733574 74 4989ft 118kts
27-Aug-18 18:44 33.876857 -117.693709 72 4949ft 121kts
27-Aug-18 18:45 33.885733 -117.654071 63 5004ft 121kts
27-Aug-18 18:46 33.896781 -117.613599 72 4940ft 124kts
27-Aug-18 18:47 33.906052 -117.573996 66 4944ft 128kts
27-Aug-18 18:48 33.917375 -117.533982 64 4962ft 126kts
27-Aug-18 18:53 33.675761 -117.871268 39 60ft 0kts
27-Aug-18 18:54 33.675761 -117.871268 39 60ft 0kts
27-Aug-18 18:55 33.675761 -117.871268 39 60ft 0kts
27-Aug-18 18:56 33.675761 -117.871268 39 60ft 0kts
27-Aug-18 18:57 33.675761 -117.871268 39 60ft 0kts
27-Aug-18 18:58 33.675761 -117.871268 39 60ft 0kts
27-Aug-18 18:59 33.675761 -117.871268 39 60ft 0kts
27-Aug-18 19:00 33.675761 -117.871268 39 60ft 0kts
27-Aug-18 19:01 33.675761 -117.871268 39 60ft 0kts
27-Aug-18 19:02 33.675761 -117.871268 39 60ft 0kts
27-Aug-18 19:03 33.676283 -117.870943 50 5000ft 109kts
27-Aug-18 19:04 34.315575 -117.603853 50 6665ft 0kts
27-Aug-18 19:05 33.532619 -117.543446 49 8446ft 0kts
27-Aug-18 19:06 32.926100 -116.899080 50 8446ft 0kts
27-Aug-18 19:07 33.387578 -117.003059 50 8446ft 0kts
27-Aug-18 19:08 33.890108 -117.567697 50 8446ft 0kts
27-Aug-18 19:09 33.890110 -117.567695 50 8444ft 7kts
27-Aug-18 19:10 33.904503 -117.557083 349 7208ft 108kts
27-Aug-18 19:11 33.897388 -117.577161 128 6507ft 98kts
27-Aug-18 19:12 33.910186 -117.553357 72 5282ft 114kts
27-Aug-18 19:13 33.917371 -117.525952 67 4907ft 64kts
27-Aug-18 19:14 33.926113 -117.505079 56 5038ft 73kts
27-Aug-18 19:15 33.936175 -117.480607 63 5188ft 94kts
27-Aug-18 19:16 33.949191 -117.450995 60 5100ft 104kts
27-Aug-18 19:17 33.961808 -117.420532 63 4970ft 100kts
27-Aug-18 19:18 33.971913 -117.390024 73 4846ft 103kts
27-Aug-18 19:19 33.986812 -117.361509 47 4204ft 100kts
27-Aug-18 19:20 34.006251 -117.337399 44 3518ft 99kts
27-Aug-18 19:21 34.027684 -117.316292 37 3156ft 98kts
27-Aug-18 19:22 34.046270 -117.290223 55 2723ft 115kts
27-Aug-18 19:23 34.067613 -117.262296 50 1961ft 96kts
27-Aug-18 19:24 34.072438 -117.236252 83 1903ft 90kts
27-Aug-18 19:25 34.082794 -117.210310 18 1672ft 89kts
27-Aug-18 19:26 34.101470 -117.218363 250 1222ft 56kts
27-Aug-18 19:27 34.098342 -117.224568 253 1144ft 31kts
27-Aug-18 19:28 34.096687 -117.225751 157 1140ft 0kts
27-Aug-18 19:29 34.096759 -117.225952 338 1140ft 4kts
27-Aug-18 19:30 34.099020 -117.224602 293 1145ft 14kts
27-Aug-18 19:31 34.100887 -117.225679 44 1143ft 0kts
27-Aug-18 19:32 34.100887 -117.225679 44 1143ft 0kts
27-Aug-18 19:33 34.100887 -117.225679 44 1143ft 0kts

Navigation Log

Ident Type
1. KSNA Airport
2. SLI Navaid
3. AHEIM Fix
4. OLLIE Fix
5. POXKU Fix
6. EBITE Fix
7. PDZ Navaid
8. KSBD Airport